Barkley Regional Airport
KPAH : now visible

Airfield :











YOU CAN JOIN US ON...

 
LOGIN :

Register | Disclaimer

   EN    FR    IT 

 









Legend :    VFR   Marginal VFR   IFR   Intensive IFR   Very Intensive IFR
Visi :
Ceiling :
>= 8 km
>= 3000ft
5 to 8 km
1000 to 3000 ft
1500m to 5 km
500 to 1000 ft
800 to 1500m
200 to 500 ft
< 800m
< 200 ft
Symbols :   Thunderstorms  Fog  Heavy snow  Heavy precipitations  Wind > 20 kt






- Airport Elevation : 410 ft
- IATA code : PAH


KPAH - Barkley Regional

CURRENT METAR :
  • 271653Z VRB05KT 7SM CLR 07/02 A3002 RMK AO2 SLP166 T00670017

EXPIRED METARs :
  • 271553Z 35004KT 8SM CLR 06/01 A3000 RMK AO2 SLP161 T00560011
  • 271453Z 32005KT 7SM CLR 04/01 A3001 RMK AO2 SLP162 T00390006 53017

TAF KPAH
Valid from the 27 at 18:00 until the 28 at 18:00 UTC


271720Z 2718/2818 32004KT P6SM SCT015
TEMPO 2718/2719 BKN015
FM271900 33005KT 4SM BR OVC004
FM272200 34005KT P6SM SCT004 BKN070
FM280400 02003KT 4SM BR BKN020
FM281200 04005KT 5SM BR BKN009



MET'MAP, your aeronautical weather chart ! - Copyright ORBIFLY December 2007 - Disclaimer

ORBIFLY MET'MAP TEAM :

Programming & Development : Alexandra Zaïnal
Concept & original design : Baudouin d'Aumeries
Assistance for programming : Marc-Olivier Méhu
Technical & hardware support : Manuel Goepfert

Contact : metmap@orbifly.com




SOURCES & CREDITS :

   NOAA       Earth
Advisory